Time;durP1;ratioP1;P1;durP2;ratioP2;P2;SDS_P1;SDS_P2;PMS_P1;PMS_P2;Temp;Humidity;BMP_temperature;BMP_pressure;BME280_temperature;BME280_humidity;BME280_pressure;Samples;Min_cycle;Max_cycle;Signal;HPM_P1;HPM_P2
2021/09/03 00:00:47;;;;;;;12.60;7.28;;;;;;;23.93;53.83;101314.67;1790746;78;20908;-53
2021/09/03 00:03:13;;;;;;;11.70;6.62;;;;;;;23.93;53.81;101318.84;1789207;78;21073;-53
2021/09/03 00:05:39;;;;;;;12.65;6.65;;;;;;;23.93;53.82;101318.06;1798055;78;21743;-52
2021/09/03 00:08:06;;;;;;;12.55;6.37;;;;;;;23.92;53.81;101313.64;1793256;78;21226;-51
2021/09/03 00:10:33;;;;;;;13.03;6.35;;;;;;;23.92;53.81;101321.41;1793900;78;21642;-52
2021/09/03 00:12:59;;;;;;;13.95;7.37;;;;;;;23.92;53.81;101322.80;1787602;78;21020;-52
2021/09/03 00:15:25;;;;;;;11.25;6.17;;;;;;;23.92;53.82;101328.92;1791979;78;21508;-52
2021/09/03 00:17:51;;;;;;;11.60;6.92;;;;;;;23.92;53.80;101327.53;1799185;78;21076;-53
2021/09/03 00:20:17;;;;;;;13.00;6.20;;;;;;;23.92;53.80;101328.92;1789794;78;21085;-53
2021/09/03 00:22:43;;;;;;;11.28;6.15;;;;;;;23.91;53.79;101329.48;1807976;78;21632;-52
2021/09/03 00:25:11;;;;;;;13.22;6.37;;;;;;;23.92;53.79;101328.92;1785782;78;21087;-53
2021/09/03 00:27:37;;;;;;;12.13;6.55;;;;;;;23.91;53.77;101332.27;1787165;79;21061;-52
2021/09/03 00:30:05;;;;;;;10.50;5.95;;;;;;;23.91;53.77;101334.23;1785997;78;21088;-53
2021/09/03 00:32:31;;;;;;;11.55;5.90;;;;;;;23.90;53.77;101332.02;1791739;78;21054;-53
2021/09/03 00:34:58;;;;;;;12.23;6.28;;;;;;;23.91;53.77;101332.84;1788003;78;21542;-53
2021/09/03 00:37:24;;;;;;;10.43;6.17;;;;;;;23.90;53.76;101333.41;1783069;78;20925;-51
2021/09/03 00:39:50;;;;;;;10.93;6.30;;;;;;;23.89;53.77;101333.75;1791559;78;21078;-53
2021/09/03 00:42:16;;;;;;;10.28;5.53;;;;;;;23.89;53.75;101333.75;1750571;80;21028;-53
2021/09/03 00:44:42;;;;;;;9.35;5.70;;;;;;;23.88;53.73;101331.55;1793219;78;21086;-53
2021/09/03 00:47:08;;;;;;;10.78;6.95;;;;;;;23.89;53.76;101328.20;1790575;78;21151;-52
2021/09/03 00:49:35;;;;;;;10.68;5.40;;;;;;;23.88;53.75;101321.81;1792370;78;20978;-51
2021/09/03 00:52:04;;;;;;;9.83;5.75;;;;;;;23.88;53.72;101326.55;1789355;78;21162;-51
2021/09/03 00:54:30;;;;;;;10.58;5.70;;;;;;;23.88;53.72;101321.00;1788095;78;21094;-53
2021/09/03 00:59:38;;;;;;;9.93;5.50;;;;;;;23.91;53.71;101328.10;1827421;76;22063;-51
2021/09/03 01:02:05;;;;;;;8.93;5.35;;;;;;;23.88;53.70;101323.78;1802482;78;20988;-51
2021/09/03 01:04:31;;;;;;;9.23;5.17;;;;;;;23.88;53.70;101323.20;1808489;78;21069;-52
2021/09/03 01:06:57;;;;;;;9.60;5.17;;;;;;;23.88;53.69;101322.39;1805258;78;20854;-52
2021/09/03 01:09:23;;;;;;;8.73;5.45;;;;;;;23.87;53.70;101326.30;1803920;78;21023;-52
2021/09/03 01:11:49;;;;;;;9.60;5.35;;;;;;;23.87;53.65;101324.91;1805251;78;21035;-54
2021/09/03 01:14:17;;;;;;;9.38;4.95;;;;;;;23.86;53.66;101324.09;1809271;78;21043;-53
2021/09/03 01:16:44;;;;;;;9.05;5.10;;;;;;;23.86;53.64;101321.31;1800685;78;21624;-49
2021/09/03 01:19:10;;;;;;;8.58;5.40;;;;;;;23.86;53.65;101323.27;1804281;78;20929;-53
2021/09/03 01:21:36;;;;;;;10.28;5.40;;;;;;;23.85;53.63;101328.01;1807686;77;20937;-52
2021/09/03 01:24:04;;;;;;;9.85;5.40;;;;;;;23.85;53.63;101329.40;1803542;78;21052;-52
2021/09/03 01:26:30;;;;;;;9.78;5.40;;;;;;;23.84;53.63;101320.84;1803473;78;21040;-51
2021/09/03 01:28:56;;;;;;;10.28;4.75;;;;;;;23.83;53.59;101324.76;1803792;78;22154;-54
2021/09/03 01:31:22;;;;;;;7.55;4.87;;;;;;;23.84;53.59;101325.58;1808249;78;21091;-51
2021/09/03 01:33:49;;;;;;;9.30;5.28;;;;;;;23.83;53.58;101329.49;1799856;79;20958;-53
2021/09/03 01:36:15;;;;;;;7.75;5.00;;;;;;;23.84;53.57;101332.52;1805973;79;21042;-52
2021/09/03 01:38:42;;;;;;;7.97;4.75;;;;;;;23.82;53.55;101331.45;1804958;78;21008;-53
2021/09/03 01:41:09;;;;;;;8.23;4.70;;;;;;;23.83;53.53;101328.10;1805044;78;21023;-54
2021/09/03 01:43:35;;;;;;;8.83;4.70;;;;;;;23.82;53.53;101334.80;1807824;78;21428;-53
2021/09/03 01:46:01;;;;;;;9.65;4.90;;;;;;;23.81;53.50;101331.20;1804201;78;21079;-53
2021/09/03 01:48:27;;;;;;;8.20;4.58;;;;;;;23.81;53.48;101330.38;1805845;78;20965;-53
2021/09/03 01:50:54;;;;;;;7.00;4.47;;;;;;;23.80;53.47;101332.36;1802572;78;20987;-53
2021/09/03 01:53:20;;;;;;;7.78;4.70;;;;;;;23.80;53.48;101325.42;1810649;78;21235;-54
2021/09/03 01:55:46;;;;;;;7.45;4.20;;;;;;;23.81;53.46;101331.77;1801469;78;21435;-54
2021/09/03 01:58:12;;;;;;;8.65;4.67;;;;;;;23.79;53.45;101322.39;1807420;77;20948;-52
2021/09/03 02:00:38;;;;;;;8.33;4.50;;;;;;;23.79;53.44;101329.91;1808281;77;20988;-54
2021/09/03 02:03:05;;;;;;;8.00;4.55;;;;;;;23.79;53.41;101327.12;1808261;78;20968;-50
2021/09/03 02:05:31;;;;;;;7.37;4.33;;;;;;;23.79;53.42;101334.07;1803961;77;21392;-52
2021/09/03 02:07:57;;;;;;;8.03;4.70;;;;;;;23.78;53.41;101339.38;1807622;78;20862;-53
2021/09/03 02:10:23;;;;;;;8.08;4.85;;;;;;;23.78;53.38;101337.98;1806560;78;20985;-53
2021/09/03 02:12:49;;;;;;;9.90;4.90;;;;;;;23.77;53.41;101337.16;1808522;78;21003;-52
2021/09/03 02:15:15;;;;;;;7.30;4.70;;;;;;;23.76;53.37;101335.55;1808657;78;21008;-51
2021/09/03 02:17:41;;;;;;;6.30;3.85;;;;;;;23.76;53.36;101330.56;1811917;78;21190;-51
2021/09/03 02:20:09;;;;;;;6.33;3.58;;;;;;;23.77;53.32;101333.56;1809431;77;21011;-51
2021/09/03 02:22:35;;;;;;;6.95;4.10;;;;;;;23.76;53.34;101329.17;1807053;78;21348;-52
2021/09/03 02:25:01;;;;;;;8.38;4.47;;;;;;;23.76;53.32;101336.13;1802251;77;21153;-53
2021/09/03 02:27:27;;;;;;;6.83;4.03;;;;;;;23.75;53.31;101334.48;1807903;78;21017;-53
2021/09/03 02:29:53;;;;;;;6.67;4.28;;;;;;;23.74;53.30;101333.66;1804896;77;21664;-50
2021/09/03 02:32:20;;;;;;;7.10;4.45;;;;;;;23.74;53.28;101338.39;1807548;78;21542;-53
2021/09/03 02:34:47;;;;;;;6.65;3.52;;;;;;;23.73;53.27;101339.53;1809044;78;21501;-50
2021/09/03 02:37:14;;;;;;;7.50;4.15;;;;;;;23.73;53.27;101335.36;1806624;78;21040;-49
2021/09/03 02:39:40;;;;;;;6.20;4.10;;;;;;;23.72;53.25;101335.93;1803788;78;21030;-50
2021/09/03 02:42:07;;;;;;;7.83;4.12;;;;;;;23.72;53.23;101332.36;1807198;77;22064;-52
2021/09/03 02:44:33;;;;;;;5.40;3.80;;;;;;;23.72;53.21;101332.36;1806924;78;21056;-52
2021/09/03 02:46:59;;;;;;;7.22;4.42;;;;;;;23.71;53.19;101334.89;1802075;78;21064;-53
2021/09/03 02:49:25;;;;;;;6.97;4.00;;;;;;;23.71;53.19;101331.54;1800027;77;21010;-52
2021/09/03 02:51:51;;;;;;;7.37;4.03;;;;;;;23.70;53.18;101324.91;1799710;78;21079;-54
2021/09/03 02:54:17;;;;;;;6.42;4.20;;;;;;;23.71;53.15;101336.27;1808019;78;21174;-52
2021/09/03 02:56:44;;;;;;;6.40;3.52;;;;;;;23.70;53.15;101336.02;1807056;78;21592;-52
2021/09/03 02:59:10;;;;;;;6.60;4.15;;;;;;;23.68;53.15;101333.56;1812188;77;21095;-53
2021/09/03 03:01:36;;;;;;;5.87;3.58;;;;;;;23.68;53.15;101333.56;1812604;77;21484;-52
2021/09/03 03:04:03;;;;;;;6.90;3.77;;;;;;;23.70;53.13;101334.63;1814303;78;20949;-52
2021/09/03 03:06:29;;;;;;;6.10;3.67;;;;;;;23.68;53.12;101337.16;1812533;78;21454;-51
2021/09/03 03:08:55;;;;;;;6.97;3.70;;;;;;;23.68;53.10;101336.94;1818575;78;20992;-53
2021/09/03 03:11:21;;;;;;;6.87;3.77;;;;;;;23.67;53.11;101338.89;1814784;78;21087;-50
2021/09/03 03:13:49;;;;;;;6.42;3.65;;;;;;;23.68;53.09;101339.72;1805912;78;20997;-53
2021/09/03 03:16:16;;;;;;;6.28;3.80;;;;;;;23.66;53.09;101340.85;1815387;78;21122;-54
2021/09/03 03:18:42;;;;;;;6.92;3.45;;;;;;;23.66;53.05;101340.03;1812571;78;21478;-52
2021/09/03 03:21:08;;;;;;;6.37;3.72;;;;;;;23.65;53.04;101346.16;1818599;78;21063;-51
2021/09/03 03:23:35;;;;;;;6.47;3.77;;;;;;;23.66;53.04;101346.41;1814025;78;21003;-52
2021/09/03 03:26:02;;;;;;;7.72;3.92;;;;;;;23.66;53.03;101345.58;1807634;78;21474;-52
2021/09/03 03:28:29;;;;;;;5.60;3.60;;;;;;;23.65;53.00;101347.54;1810789;78;20885;-53
2021/09/03 03:30:55;;;;;;;5.60;3.52;;;;;;;23.65;52.98;101350.31;1812557;78;21761;-52
2021/09/03 03:33:21;;;;;;;6.53;3.62;;;;;;;23.64;52.98;101352.02;1811602;78;21024;-51
2021/09/03 03:35:48;;;;;;;5.95;3.20;;;;;;;23.64;52.97;101359.78;1818904;78;21438;-53
2021/09/03 03:38:14;;;;;;;5.97;3.22;;;;;;;23.63;52.97;101354.58;1812073;78;21009;-52
2021/09/03 03:40:41;;;;;;;6.05;3.70;;;;;;;23.61;52.94;101349.91;1815756;78;21067;-53
2021/09/03 03:43:07;;;;;;;6.75;3.35;;;;;;;23.62;52.93;101354.33;1811639;78;21141;-51
2021/09/03 03:45:33;;;;;;;6.85;3.72;;;;;;;23.62;52.92;101363.48;1813588;77;20881;-55
2021/09/03 03:47:59;;;;;;;6.80;4.10;;;;;;;23.61;52.89;101359.05;1811882;77;21099;-56
2021/09/03 03:50:26;;;;;;;6.33;3.95;;;;;;;23.61;52.90;101366.00;1812320;78;21467;-57
2021/09/03 03:52:52;;;;;;;11.70;5.28;;;;;;;23.60;52.93;101360.20;1814191;77;21048;-55
2021/09/03 03:55:20;;;;;;;11.38;5.65;;;;;;;23.61;52.97;101362.41;1811541;78;21172;-55
2021/09/03 03:57:46;;;;;;;20.60;9.43;;;;;;;23.62;53.01;101367.64;1813863;78;21463;-53
2021/09/03 04:00:16;;;;;;;36.70;12.28;;;;;;;23.63;53.05;101374.02;1805460;78;20988;-53
2021/09/03 04:02:42;;;;;;;24.57;9.45;;;;;;;23.63;53.08;101368.47;1807901;77;21123;-48
2021/09/03 04:05:09;;;;;;;8.08;4.10;;;;;;;23.62;53.08;101375.98;1811424;77;21017;-53
2021/09/03 04:07:35;;;;;;;14.90;6.72;;;;;;;23.62;53.08;101378.75;1805043;77;21364;-53
2021/09/03 04:10:03;;;;;;;88.30;35.98;;;;;;;23.61;53.03;101382.67;1808217;78;21395;-52
2021/09/03 04:12:29;;;;;;;7.95;4.30;;;;;;;23.60;53.01;101382.41;1803351;78;21091;-53
2021/09/03 04:14:55;;;;;;;16.10;7.83;;;;;;;23.60;52.95;101382.41;1809239;78;21564;-54
2021/09/03 04:17:22;;;;;;;19.23;6.00;;;;;;;23.61;52.90;101374.91;1797468;78;21056;-56
2021/09/03 04:19:48;;;;;;;8.55;3.55;;;;;;;23.61;52.86;101379.89;1802030;78;21440;-55
2021/09/03 04:22:15;;;;;;;5.45;3.30;;;;;;;23.61;52.80;101387.41;1806387;78;20889;-56
2021/09/03 04:24:41;;;;;;;8.18;3.80;;;;;;;23.60;52.73;101391.31;1800884;78;21076;-57
2021/09/03 04:27:07;;;;;;;6.35;3.42;;;;;;;23.60;52.65;101387.97;1800004;78;21520;-54
2021/09/03 04:29:33;;;;;;;27.10;13.50;;;;;;;23.61;52.60;101378.50;1805486;78;20972;-55
2021/09/03 04:31:59;;;;;;;34.73;18.25;;;;;;;23.61;52.55;101380.45;1803175;77;21267;-57
2021/09/03 04:34:25;;;;;;;19.57;8.93;;;;;;;23.61;52.46;101377.68;1801831;78;21028;-55
2021/09/03 04:36:51;;;;;;;21.45;8.90;;;;;;;23.61;52.38;101381.84;1807458;78;20992;-50
2021/09/03 04:39:18;;;;;;;6.37;3.77;;;;;;;23.62;52.28;101386.27;1805649;78;21150;-57
2021/09/03 04:41:44;;;;;;;39.58;16.05;;;;;;;23.61;52.06;101384.05;1803774;78;20932;-52
2021/09/03 04:44:10;;;;;;;12.73;5.90;;;;;;;23.60;51.58;101382.41;1802767;78;21655;-49
2021/09/03 04:46:36;;;;;;;13.90;5.15;;;;;;;23.59;51.25;101386.33;1745553;81;21033;-51
2021/09/03 04:49:02;;;;;;;41.88;15.55;;;;;;;23.58;50.83;101382.50;1754172;81;20937;-52
2021/09/03 04:51:28;;;;;;;252.70;79.70;;;;;;;23.60;50.56;101385.19;1754218;81;21561;-51
2021/09/03 04:53:54;;;;;;;53.80;18.10;;;;;;;23.60;50.57;101385.76;1753665;81;21076;-49
2021/09/03 04:56:20;;;;;;;22.65;7.78;;;;;;;23.60;50.55;101392.70;1747963;81;21313;-47
2021/09/03 04:58:46;;;;;;;11.55;4.35;;;;;;;23.59;50.52;101393.27;1752317;80;20908;-51
2021/09/03 05:01:12;;;;;;;8.68;3.98;;;;;;;23.58;50.47;101398.60;1750391;80;21017;-54
2021/09/03 05:03:38;;;;;;;13.70;4.10;;;;;;;23.58;50.41;101393.61;1751050;80;21080;-51
2021/09/03 05:06:04;;;;;;;18.90;5.20;;;;;;;23.58;50.38;101401.38;1750895;80;22419;-50
2021/09/03 05:08:30;;;;;;;15.53;5.97;;;;;;;23.59;50.33;101402.20;1748764;80;21101;-52
2021/09/03 05:10:56;;;;;;;15.32;4.45;;;;;;;23.60;50.30;101403.25;1752800;80;21146;-52
2021/09/03 05:13:22;;;;;;;13.35;4.87;;;;;;;23.61;50.25;101394.34;1748357;80;21007;-51
2021/09/03 05:15:48;;;;;;;13.78;5.35;;;;;;;23.60;50.24;101400.47;1746773;80;21060;-52
2021/09/03 05:18:15;;;;;;;15.48;5.78;;;;;;;23.62;50.20;101404.33;1746994;80;21241;-52
2021/09/03 05:20:41;;;;;;;12.05;4.83;;;;;;;23.62;50.17;101407.92;1754569;81;21100;-52
2021/09/03 05:23:07;;;;;;;12.37;4.53;;;;;;;23.62;50.12;101405.14;1748809;80;21466;-52
2021/09/03 05:25:34;;;;;;;15.83;5.62;;;;;;;23.62;50.11;101410.70;1751007;80;21499;-52
2021/09/03 05:28:00;;;;;;;14.93;5.12;;;;;;;23.63;50.05;101405.40;1749510;80;21024;-53
2021/09/03 05:30:26;;;;;;;14.28;5.22;;;;;;;23.63;50.01;101415.69;1747901;80;20941;-51
2021/09/03 05:32:53;;;;;;;13.22;5.35;;;;;;;23.64;49.97;101414.53;1753275;80;22090;-53
2021/09/03 05:35:23;;;;;;;13.32;5.33;;;;;;;23.64;49.94;101411.75;1747830;80;21139;-52
2021/09/03 05:37:48;;;;;;;14.30;5.40;;;;;;;23.63;49.90;101413.73;1751232;80;21032;-50
2021/09/03 05:40:14;;;;;;;12.40;4.28;;;;;;;23.63;49.87;101413.73;1751490;80;21806;-52
2021/09/03 05:42:40;;;;;;;13.18;5.00;;;;;;;23.63;49.84;101417.91;1755172;80;21008;-53
2021/09/03 05:45:08;;;;;;;12.25;5.00;;;;;;;23.64;49.78;101417.30;1752753;80;21091;-52
2021/09/03 05:47:34;;;;;;;10.53;4.53;;;;;;;23.64;49.77;101411.75;1749874;80;21037;-52
2021/09/03 05:50:00;;;;;;;12.13;4.65;;;;;;;23.64;49.75;101415.34;1746905;80;21510;-51
2021/09/03 05:52:26;;;;;;;16.48;4.90;;;;;;;23.65;49.74;101417.56;1745563;80;21147;-52
2021/09/03 05:54:52;;;;;;;10.63;4.62;;;;;;;23.65;49.73;101423.11;1747896;80;21261;-50
2021/09/03 05:57:18;;;;;;;13.13;4.53;;;;;;;23.65;49.68;101414.78;1752401;80;21335;-50
2021/09/03 05:59:44;;;;;;;12.95;4.67;;;;;;;23.65;49.69;101414.21;1758911;80;21001;-53
2021/09/03 06:02:11;;;;;;;10.23;4.00;;;;;;;23.66;49.68;101420.59;1768678;80;21032;-52
2021/09/03 06:04:37;;;;;;;13.95;5.62;;;;;;;23.65;49.68;101423.94;1775595;79;21084;-53
2021/09/03 06:07:03;;;;;;;11.03;4.20;;;;;;;23.66;49.70;101419.20;1772075;80;21131;-53
2021/09/03 06:09:30;;;;;;;10.65;4.22;;;;;;;23.66;49.69;101412.26;1774204;80;21116;-52
2021/09/03 06:11:57;;;;;;;9.88;4.60;;;;;;;23.66;49.68;101418.63;1770535;80;21119;-52
2021/09/03 06:14:23;;;;;;;9.48;4.22;;;;;;;23.66;49.66;101418.63;1767632;80;21563;-53
2021/09/03 06:16:50;;;;;;;9.95;4.35;;;;;;;23.67;49.66;101423.63;1774664;80;20956;-53
2021/09/03 06:19:16;;;;;;;9.68;4.35;;;;;;;23.66;49.66;101426.97;1773897;80;21103;-53
2021/09/03 06:21:42;;;;;;;9.05;4.33;;;;;;;23.68;49.64;101429.41;1769006;80;22487;-52
2021/09/03 06:26:52;;;;;;;9.15;4.30;;;;;;;23.68;49.60;101420.28;1775018;80;21020;-52
2021/09/03 06:32:10;;;;;;;9.60;3.65;;;;;;;23.69;49.55;101421.33;1763760;79;21146;-52
2021/09/03 06:34:38;;;;;;;13.95;4.12;;;;;;;23.69;49.52;101419.94;1768508;79;21982;-50
2021/09/03 06:37:05;;;;;;;8.78;4.10;;;;;;;23.69;49.51;101421.33;1764741;80;20997;-53
2021/09/03 06:39:31;;;;;;;9.15;4.33;;;;;;;23.70;49.47;101422.97;1776098;80;20996;-51
2021/09/03 06:41:57;;;;;;;10.60;4.60;;;;;;;23.71;49.44;101436.30;1765239;79;21553;-51
2021/09/03 06:44:23;;;;;;;7.60;3.80;;;;;;;23.70;49.42;101435.47;1770197;79;21064;-52
2021/09/03 06:46:49;;;;;;;11.60;4.30;;;;;;;23.71;49.40;101430.73;1774681;79;21183;-51
2021/09/03 06:49:15;;;;;;;7.67;3.50;;;;;;;23.71;49.38;101432.95;1767809;80;21609;-52
2021/09/03 06:51:41;;;;;;;9.58;3.80;;;;;;;23.73;49.36;101439.55;1781753;80;20990;-52
2021/09/03 06:54:07;;;;;;;9.68;3.65;;;;;;;23.73;49.36;101450.66;1767495;80;20945;-50
2021/09/03 06:56:33;;;;;;;8.53;3.77;;;;;;;23.74;49.34;101446.75;1768450;80;21084;-52
2021/09/03 06:59:00;;;;;;;6.45;3.83;;;;;;;23.74;49.34;101444.79;1771812;79;23210;-52
2021/09/03 07:01:27;;;;;;;8.80;4.20;;;;;;;23.75;49.29;101453.95;1763930;79;20949;-51
2021/09/03 07:03:53;;;;;;;7.53;3.72;;;;;;;23.75;49.29;101451.17;1777679;80;21017;-53
2021/09/03 07:06:20;;;;;;;6.85;3.87;;;;;;;23.76;49.27;101450.03;1773523;80;20909;-50
2021/09/03 07:08:46;;;;;;;9.33;3.85;;;;;;;23.76;49.27;101460.58;1776440;80;20913;-52
2021/09/03 07:11:12;;;;;;;7.80;3.45;;;;;;;23.77;49.23;101461.38;1778498;80;21057;-51
2021/09/03 07:13:38;;;;;;;9.05;3.90;;;;;;;23.77;49.22;101455.81;1771690;80;21091;-50
2021/09/03 07:16:05;;;;;;;8.83;4.80;;;;;;;23.78;49.21;101458.84;1773235;80;21531;-51
2021/09/03 07:18:32;;;;;;;8.30;3.67;;;;;;;23.78;49.18;101456.07;1775578;80;21060;-47
2021/09/03 07:20:58;;;;;;;9.28;4.20;;;;;;;23.78;49.18;101458.28;1774564;80;20989;-53
2021/09/03 07:23:24;;;;;;;8.63;3.62;;;;;;;23.80;49.16;101460.75;1770915;80;22017;-51
2021/09/03 07:25:50;;;;;;;6.62;3.42;;;;;;;23.79;49.13;101457.15;1764522;80;21111;-53
2021/09/03 07:28:16;;;;;;;6.83;4.12;;;;;;;23.81;49.12;101460.97;1769319;79;21621;-53
2021/09/03 07:30:42;;;;;;;8.40;4.00;;;;;;;23.81;49.09;101459.02;1768623;80;21005;-52
2021/09/03 07:33:08;;;;;;;7.58;3.45;;;;;;;23.81;49.09;101453.45;1766929;80;21118;-52
2021/09/03 07:35:34;;;;;;;6.50;3.45;;;;;;;23.82;49.06;101455.67;1773973;80;21110;-52
2021/09/03 07:38:00;;;;;;;8.98;4.50;;;;;;;23.82;49.05;101459.84;1775979;80;21650;-51
2021/09/03 07:40:27;;;;;;;6.97;3.60;;;;;;;23.83;49.04;101454.53;1777234;80;20940;-50
2021/09/03 07:42:55;;;;;;;6.75;3.37;;;;;;;23.83;49.01;101455.92;1774130;80;21421;-51
2021/09/03 07:45:21;;;;;;;8.05;3.58;;;;;;;23.84;48.97;101464.52;1772727;80;21228;-51
2021/09/03 07:47:47;;;;;;;7.28;3.77;;;;;;;23.85;48.97;101459.21;1768376;80;21397;-52
2021/09/03 07:50:18;;;;;;;6.35;3.15;;;;;;;23.85;48.96;101450.87;1772307;80;21792;-52
2021/09/03 07:52:45;;;;;;;6.58;3.75;;;;;;;23.85;48.93;101448.89;1773933;80;21064;-50
2021/09/03 07:55:11;;;;;;;6.75;3.08;;;;;;;23.86;48.90;101443.59;1775612;80;21080;-49
2021/09/03 07:57:37;;;;;;;7.50;4.20;;;;;;;23.86;48.88;101448.32;1774510;80;20889;-51
2021/09/03 08:00:05;;;;;;;6.00;3.30;;;;;;;23.87;48.88;101445.80;1767230;80;21284;-51
2021/09/03 08:02:31;;;;;;;6.80;3.45;;;;;;;23.88;48.86;101444.09;1772754;79;20934;-53
2021/09/03 08:04:57;;;;;;;8.10;3.37;;;;;;;23.89;48.84;101440.75;1770285;80;21693;-50
2021/09/03 08:07:27;;;;;;;6.62;3.62;;;;;;;23.89;48.84;101440.75;1767746;80;20992;-53
2021/09/03 08:09:51;;;;;;;6.10;3.75;;;;;;;23.89;48.82;101437.37;1764524;80;21126;-53
2021/09/03 08:12:17;;;;;;;12.70;4.12;;;;;;;23.89;48.81;101432.41;1771569;80;21203;-52
2021/09/03 08:14:43;;;;;;;7.58;3.12;;;;;;;23.92;48.79;101446.47;1768281;80;20905;-53
2021/09/03 08:17:09;;;;;;;6.90;3.35;;;;;;;23.93;48.77;101436.17;1773290;80;20905;-53
2021/09/03 08:19:35;;;;;;;6.25;2.98;;;;;;;23.93;48.78;101436.97;1764871;80;21467;-54
2021/09/03 08:22:02;;;;;;;6.33;3.75;;;;;;;23.94;48.76;101435.83;1739045;80;21072;-52
2021/09/03 08:24:28;;;;;;;6.72;3.55;;;;;;;23.95;48.77;101437.47;1768996;80;21419;-52
2021/09/03 08:26:54;;;;;;;7.30;3.33;;;;;;;23.95;48.77;101430.52;1765754;80;21653;-51
2021/09/03 08:29:21;;;;;;;5.78;3.65;;;;;;;23.97;48.75;101431.59;1770688;80;21048;-52
2021/09/03 08:31:47;;;;;;;7.22;3.50;;;;;;;23.98;48.75;101426.27;1769538;80;21507;-51
2021/09/03 08:34:13;;;;;;;6.92;3.40;;;;;;;23.98;48.75;101418.75;1769011;80;21024;-52
2021/09/03 08:36:39;;;;;;;6.25;3.08;;;;;;;23.98;48.75;101413.76;1767080;80;21163;-53
2021/09/03 08:39:06;;;;;;;5.95;3.35;;;;;;;24.00;48.75;101412.87;1727654;82;20986;-51
2021/09/03 08:41:32;;;;;;;5.53;2.98;;;;;;;24.01;48.78;101411.73;1766459;80;20908;-52
2021/09/03 08:43:59;;;;;;;5.58;3.25;;;;;;;24.01;48.77;101397.84;1728819;81;21649;-53
2021/09/03 08:46:27;;;;;;;5.80;2.98;;;;;;;24.01;48.79;101397.84;1765638;79;21566;-52
2021/09/03 08:48:53;;;;;;;6.83;3.50;;;;;;;24.02;48.81;101398.06;1767182;80;21145;-52
2021/09/03 08:51:20;;;;;;;6.00;3.17;;;;;;;24.03;48.82;101395.53;1735464;81;21063;-51
2021/09/03 08:53:46;;;;;;;5.47;3.20;;;;;;;24.03;48.82;101396.35;1734413;81;21031;-51
2021/09/03 08:56:12;;;;;;;5.78;3.37;;;;;;;24.04;48.84;101387.45;1754473;80;21088;-54
2021/09/03 08:58:39;;;;;;;6.12;3.12;;;;;;;24.04;48.85;101389.66;1754052;80;21092;-60
2021/09/03 09:01:11;;;;;;;5.17;3.58;;;;;;;24.05;48.88;101389.09;1733950;80;22027;-54
2021/09/03 09:03:41;;;;;;;5.35;3.27;;;;;;;24.05;48.90;101381.58;1763804;81;21060;-52
2021/09/03 09:06:09;;;;;;;7.30;3.30;;;;;;;24.07;48.91;101381.22;1756051;81;21347;-53
2021/09/03 09:08:36;;;;;;;6.90;3.30;;;;;;;24.06;48.94;101381.80;1779235;80;21076;-47
2021/09/03 09:11:13;;;;;;;5.60;3.62;;;;;;;24.08;48.94;101380.91;1783841;80;21036;-54
2021/09/03 09:13:43;;;;;;;6.30;3.22;;;;;;;24.10;48.88;101371.66;1778984;80;22441;-53
2021/09/03 09:16:15;;;;;;;6.28;2.98;;;;;;;24.11;48.87;101364.95;1787471;79;21099;-55
2021/09/03 09:18:52;;;;;;;6.53;2.70;;;;;;;24.12;48.90;101369.95;1769769;80;21147;-52
2021/09/03 09:21:29;;;;;;;6.72;3.02;;;;;;;24.12;48.90;101369.37;1773541;80;21598;-54
2021/09/03 09:24:11;;;;;;;5.70;2.85;;;;;;;24.13;48.91;101370.20;1779851;80;21138;-54
2021/09/03 09:26:56;;;;;;;6.83;2.67;;;;;;;24.12;48.94;101362.42;1779830;80;21311;-55
2021/09/03 09:29:36;;;;;;;6.10;2.98;;;;;;;24.13;48.93;101363.25;1778852;80;21081;-55
2021/09/03 09:32:07;;;;;;;6.28;2.87;;;;;;;24.12;48.94;101356.05;1790656;80;21482;-55
2021/09/03 09:34:35;;;;;;;6.10;2.90;;;;;;;24.12;48.94;101358.25;1772341;79;21147;-55
2021/09/03 09:37:10;;;;;;;5.90;3.20;;;;;;;24.12;48.97;101342.14;1788775;80;21123;-55
2021/09/03 09:39:50;;;;;;;5.90;3.10;;;;;;;24.13;48.94;101338.23;1746418;81;21775;-55
2021/09/03 09:42:27;;;;;;;5.28;3.20;;;;;;;24.12;48.94;101341.58;1773521;80;21095;-55
2021/09/03 09:45:16;;;;;;;6.25;2.83;;;;;;;24.13;48.94;101341.01;1786235;79;21063;-55
2021/09/03 09:47:43;;;;;;;5.37;2.90;;;;;;;24.13;48.96;101333.48;1785682;80;21123;-55
2021/09/03 09:50:26;;;;;;;6.50;3.08;;;;;;;24.14;48.97;101331.53;1783171;79;21040;-55
2021/09/03 09:52:53;;;;;;;7.00;3.10;;;;;;;24.14;48.96;101323.19;1785881;80;21108;-55
2021/09/03 09:55:19;;;;;;;5.00;2.75;;;;;;;24.14;48.96;101329.54;1777768;79;21010;-48
2021/09/03 09:57:49;;;;;;;6.22;3.20;;;;;;;24.15;48.98;101324.83;1777584;80;21491;-48
2021/09/03 10:00:16;;;;;;;7.33;3.33;;;;;;;24.16;48.91;101324.27;1767571;80;21017;-47
2021/09/03 10:02:43;;;;;;;5.33;2.98;;;;;;;24.17;48.89;101322.55;1772232;80;21091;-47
2021/09/03 10:05:10;;;;;;;7.25;3.45;;;;;;;24.18;48.88;101317.81;1770435;80;21100;-48
2021/09/03 10:07:37;;;;;;;8.10;3.72;;;;;;;24.18;48.87;101315.03;1769676;79;21055;-47
2021/09/03 10:10:05;;;;;;;9.10;3.95;;;;;;;24.20;48.85;101316.89;1749710;80;21064;-46
2021/09/03 10:12:31;;;;;;;7.70;3.33;;;;;;;24.19;48.84;101312.50;1769169;80;21076;-47
2021/09/03 10:14:57;;;;;;;6.30;3.33;;;;;;;24.19;48.84;101305.55;1773051;80;20905;-47
2021/09/03 10:17:23;;;;;;;7.10;3.87;;;;;;;24.19;48.84;101309.72;1773351;80;21027;-47
2021/09/03 10:19:52;;;;;;;5.42;3.10;;;;;;;24.20;48.83;101302.99;1766535;80;21522;-46
2021/09/03 10:22:20;;;;;;;10.38;3.30;;;;;;;24.21;48.82;101290.73;1773821;80;21047;-46
2021/09/03 10:24:47;;;;;;;8.78;3.30;;;;;;;24.20;48.82;101298.82;1769411;79;21015;-46
2021/09/03 10:27:14;;;;;;;7.15;3.80;;;;;;;24.20;48.82;101291.30;1763832;80;21007;-46
2021/09/03 10:29:46;;;;;;;7.15;3.58;;;;;;;24.21;48.85;101296.29;1773026;79;21116;-47
2021/09/03 10:32:17;;;;;;;4.33;2.95;;;;;;;24.20;48.85;101288.52;1764919;80;21439;-47
2021/09/03 10:34:58;;;;;;;5.95;3.15;;;;;;;24.21;48.85;101281.00;1775123;80;21014;-47
2021/09/03 10:37:31;;;;;;;7.47;3.70;;;;;;;24.22;48.86;101286.81;1776523;80;21097;-49
2021/09/03 10:40:06;;;;;;;7.03;3.40;;;;;;;24.21;48.85;101274.87;1774008;80;21064;-47
2021/09/03 10:42:48;;;;;;;4.92;2.98;;;;;;;24.23;48.84;101272.55;1775129;79;21544;-47
2021/09/03 10:45:40;;;;;;;6.03;2.95;;;;;;;24.23;48.86;101278.12;1780857;80;21480;-47
2021/09/03 10:48:17;;;;;;;6.20;2.98;;;;;;;24.24;48.87;101274.77;1769355;80;21546;-48
2021/09/03 10:50:52;;;;;;;5.12;3.10;;;;;;;24.24;48.87;101275.59;1772510;80;21116;-49
2021/09/03 10:53:31;;;;;;;5.12;3.00;;;;;;;24.25;48.90;101276.41;1764961;79;21099;-47
2021/09/03 10:56:02;;;;;;;7.45;3.25;;;;;;;24.25;48.90;101271.66;1771881;80;21598;-47
2021/09/03 10:58:51;;;;;;;4.95;2.58;;;;;;;24.26;48.94;101270.53;1770168;80;21089;-48
2021/09/03 11:01:27;;;;;;;4.92;2.90;;;;;;;24.27;48.94;101269.39;1776584;79;21021;-47
2021/09/03 11:04:15;;;;;;;4.75;2.80;;;;;;;24.28;48.93;101267.39;1768983;80;21155;-48
2021/09/03 11:06:40;;;;;;;6.83;2.90;;;;;;;24.29;48.95;101263.47;1766967;79;21068;-47
2021/09/03 11:09:20;;;;;;;5.65;2.62;;;;;;;24.30;48.96;101255.38;1769077;80;21168;-48
2021/09/03 11:11:51;;;;;;;5.80;2.60;;;;;;;24.31;48.95;101260.63;1777960;80;21529;-48
2021/09/03 11:14:24;;;;;;;6.05;2.60;;;;;;;24.32;48.95;101258.06;1775047;80;20954;-46
2021/09/03 11:17:00;;;;;;;4.40;2.45;;;;;;;24.33;48.97;101254.14;1773271;80;21017;-48
2021/09/03 11:19:46;;;;;;;4.20;2.30;;;;;;;24.34;48.96;101248.83;1772439;80;21039;-49
2021/09/03 11:22:21;;;;;;;4.25;2.37;;;;;;;24.36;48.96;101245.12;1771468;80;22249;-48
2021/09/03 11:24:50;;;;;;;3.98;2.67;;;;;;;24.38;48.95;101250.36;1762065;80;21004;-47
2021/09/03 11:27:20;;;;;;;6.58;2.47;;;;;;;24.39;48.95;101248.65;1774359;79;21030;-47
2021/09/03 11:29:53;;;;;;;5.33;2.77;;;;;;;24.40;48.94;101241.13;1761883;80;21095;-48
2021/09/03 11:32:22;;;;;;;5.37;2.75;;;;;;;24.42;48.94;101231.86;1776732;79;21001;-47